Time;durP1;ratioP1;P1;durP2;ratioP2;P2;SDS_P1;SDS_P2;PMS_P1;PMS_P2;Temp;Humidity;BMP_temperature;BMP_pressure;BME280_temperature;BME280_humidity;BME280_pressure;Samples;Min_cycle;Max_cycle;Signal;HPM_P1;HPM_P2
2023/07/10 00:00:19;;;;;;;1.47;0.87;;;23.80;98.20;;;;;;4995566;28;20801;-79
2023/07/10 00:02:46;;;;;;;1.50;0.90;;;23.80;98.20;;;;;;4997093;28;21116;-80
2023/07/10 00:05:14;;;;;;;1.47;0.90;;;23.80;98.20;;;;;;4997426;28;20480;-79
2023/07/10 00:07:42;;;;;;;1.47;0.90;;;23.80;98.20;;;;;;4998369;28;20491;-79
2023/07/10 00:10:11;;;;;;;1.40;0.90;;;23.70;98.20;;;;;;4996122;28;20465;-80
2023/07/10 00:12:39;;;;;;;1.47;0.90;;;23.70;98.20;;;;;;5001769;28;21005;-81
2023/07/10 00:15:18;;;;;;;1.47;0.80;;;23.70;98.20;;;;;;4999911;28;20473;-79
2023/07/10 00:17:45;;;;;;;1.47;0.90;;;23.70;98.20;;;;;;5001646;28;20669;-80
2023/07/10 00:20:15;;;;;;;1.50;0.90;;;23.70;98.20;;;;;;4996756;28;20537;-80
2023/07/10 00:22:43;;;;;;;1.50;0.90;;;23.60;98.20;;;;;;5006440;28;20491;-79
2023/07/10 00:25:11;;;;;;;1.50;0.90;;;23.60;98.20;;;;;;5000264;28;20492;-80
2023/07/10 00:27:38;;;;;;;1.50;0.90;;;23.60;98.20;;;;;;5004445;28;20463;-79
2023/07/10 00:30:15;;;;;;;1.47;0.90;;;23.60;98.20;;;;;;4997269;28;20476;-80
2023/07/10 00:32:42;;;;;;;1.47;0.90;;;23.60;98.20;;;;;;5002942;28;21035;-79
2023/07/10 00:35:09;;;;;;;1.50;0.90;;;23.60;98.20;;;;;;5000669;28;20490;-80
2023/07/10 00:37:36;;;;;;;1.50;0.90;;;23.60;98.20;;;;;;5002821;28;20456;-80
2023/07/10 00:40:16;;;;;;;1.47;0.90;;;23.60;98.20;;;;;;5001320;28;20457;-80
2023/07/10 00:42:44;;;;;;;1.47;0.90;;;23.50;98.20;;;;;;5003042;28;20496;-79
2023/07/10 00:45:14;;;;;;;1.50;0.90;;;23.50;98.20;;;;;;5002978;28;20484;-80
2023/07/10 00:47:46;;;;;;;1.47;0.90;;;23.50;98.20;;;;;;5002664;28;20543;-79
2023/07/10 00:50:20;;;;;;;1.43;0.90;;;23.40;98.20;;;;;;5000451;28;20463;-80
2023/07/10 00:52:49;;;;;;;1.50;0.90;;;23.40;98.20;;;;;;5004943;28;20882;-81
2023/07/10 00:55:22;;;;;;;1.50;0.90;;;23.30;98.20;;;;;;4998420;28;20480;-79
2023/07/10 00:57:53;;;;;;;1.50;0.90;;;23.30;98.20;;;;;;4997958;28;20456;-80
2023/07/10 01:00:22;;;;;;;1.47;0.90;;;23.30;98.20;;;;;;4998779;28;20976;-81
2023/07/10 01:02:50;;;;;;;1.50;0.90;;;23.20;98.20;;;;;;5000325;28;20488;-81
2023/07/10 01:05:18;;;;;;;1.50;1.10;;;23.20;98.20;;;;;;4999665;28;20485;-81
2023/07/10 01:07:49;;;;;;;1.50;0.90;;;23.20;98.20;;;;;;5004210;28;20467;-80
2023/07/10 01:10:15;;;;;;;1.47;0.90;;;23.10;98.20;;;;;;5001887;28;20864;-80
2023/07/10 01:12:46;;;;;;;1.47;0.90;;;23.10;98.20;;;;;;5001841;28;20463;-79
2023/07/10 01:15:15;;;;;;;1.50;0.90;;;23.10;98.20;;;;;;5000825;28;20485;-79
2023/07/10 01:17:42;;;;;;;1.50;1.00;;;23.10;98.20;;;;;;5001614;28;20516;-80
2023/07/10 01:20:34;;;;;;;1.50;0.90;;;23.00;98.20;;;;;;5001863;28;20828;-80
2023/07/10 01:23:03;;;;;;;1.50;0.90;;;22.90;98.20;;;;;;5002724;28;20484;-78
2023/07/10 01:25:33;;;;;;;1.50;0.90;;;22.80;98.20;;;;;;4999955;28;20499;-80
2023/07/10 01:28:01;;;;;;;1.47;0.90;;;22.80;98.20;;;;;;4998712;28;20552;-79
2023/07/10 01:30:34;;;;;;;1.40;0.87;;;22.70;98.20;;;;;;4999673;28;20469;-80
2023/07/10 01:33:02;;;;;;;1.50;0.90;;;22.70;98.20;;;;;;4998740;28;20457;-79
2023/07/10 01:35:31;;;;;;;1.50;0.90;;;22.70;98.20;;;;;;4997526;28;20505;-80
2023/07/10 01:37:58;;;;;;;1.50;1.00;;;22.60;98.20;;;;;;5003917;28;20487;-80
2023/07/10 01:40:32;;;;;;;1.50;0.90;;;22.50;98.20;;;;;;4999490;28;20839;-79
2023/07/10 01:43:00;;;;;;;1.50;0.90;;;22.50;98.20;;;;;;5000806;28;20489;-79
2023/07/10 01:45:28;;;;;;;1.47;0.90;;;22.40;98.20;;;;;;5002892;28;21006;-80
2023/07/10 01:47:56;;;;;;;1.50;0.90;;;22.40;98.20;;;;;;5000042;28;20460;-80
2023/07/10 01:50:23;;;;;;;1.50;0.90;;;22.40;98.20;;;;;;4999136;28;20461;-79
2023/07/10 01:52:50;;;;;;;1.50;0.90;;;22.40;98.20;;;;;;4999132;28;20544;-80
2023/07/10 01:55:19;;;;;;;1.50;0.90;;;22.40;98.20;;;;;;4997122;28;20481;-79
2023/07/10 01:57:47;;;;;;;1.47;0.83;;;22.40;98.20;;;;;;4995067;28;20991;-79
2023/07/10 02:00:15;;;;;;;1.50;0.90;;;22.40;98.20;;;;;;4996815;28;20471;-79
2023/07/10 02:02:42;;;;;;;1.50;0.90;;;22.40;98.20;;;;;;5000905;28;20481;-78
2023/07/10 02:05:09;;;;;;;1.50;0.90;;;22.40;98.20;;;;;;4996449;28;20569;-78
2023/07/10 02:07:36;;;;;;;1.50;0.90;;;22.40;98.20;;;;;;4998855;28;20463;-78
2023/07/10 02:10:03;;;;;;;1.50;0.90;;;22.40;98.20;;;;;;5002047;28;20484;-78
2023/07/10 02:12:30;;;;;;;1.47;1.00;;;22.50;98.20;;;;;;4999598;28;20457;-78
2023/07/10 02:14:58;;;;;;;1.50;0.90;;;22.50;98.20;;;;;;5002670;28;20514;-78
2023/07/10 02:17:25;;;;;;;6.60;3.03;;;22.50;98.20;;;;;;4999057;28;20465;-78
2023/07/10 02:19:52;;;;;;;1.50;0.90;;;22.50;98.20;;;;;;5001036;28;20464;-78
2023/07/10 02:22:18;;;;;;;1.50;0.90;;;22.50;98.20;;;;;;4998038;28;20464;-78
2023/07/10 02:24:45;;;;;;;1.50;0.90;;;22.50;98.20;;;;;;4999766;28;20476;-77
2023/07/10 02:27:12;;;;;;;1.50;0.90;;;22.50;98.20;;;;;;5001157;28;20460;-79
2023/07/10 02:29:39;;;;;;;1.50;0.90;;;22.50;98.20;;;;;;5000425;28;20967;-78
2023/07/10 02:32:08;;;;;;;1.50;0.90;;;22.40;98.20;;;;;;4999064;28;20947;-78
2023/07/10 02:34:35;;;;;;;1.47;0.90;;;22.40;98.20;;;;;;4999647;28;20613;-79
2023/07/10 02:37:02;;;;;;;1.50;0.90;;;22.40;98.20;;;;;;5001792;28;20456;-78
2023/07/10 02:39:29;;;;;;;1.50;1.00;;;22.40;98.20;;;;;;5001428;28;20842;-79
2023/07/10 02:41:55;;;;;;;1.50;0.90;;;22.40;98.20;;;;;;4998640;28;20532;-78
2023/07/10 02:44:22;;;;;;;1.50;0.90;;;22.40;98.20;;;;;;5001343;28;20491;-80
2023/07/10 02:46:49;;;;;;;1.50;0.90;;;22.40;98.20;;;;;;4997013;28;20484;-78
2023/07/10 02:49:17;;;;;;;1.50;0.90;;;22.40;98.20;;;;;;5000229;28;21018;-79
2023/07/10 02:51:44;;;;;;;1.47;0.90;;;22.50;98.20;;;;;;4998919;28;20471;-78
2023/07/10 02:54:12;;;;;;;2.13;1.60;;;22.50;98.20;;;;;;4997264;28;20453;-78
2023/07/10 02:56:39;;;;;;;1.50;0.90;;;22.50;98.20;;;;;;5003755;28;20477;-78
2023/07/10 02:59:05;;;;;;;1.50;0.90;;;22.50;98.20;;;;;;4997623;28;20552;-79
2023/07/10 03:01:32;;;;;;;1.50;0.90;;;22.50;98.20;;;;;;4996781;28;20471;-79
2023/07/10 03:03:59;;;;;;;1.50;0.90;;;22.50;98.20;;;;;;4999318;28;20493;-79
2023/07/10 03:06:27;;;;;;;1.47;0.90;;;22.50;98.20;;;;;;5007902;28;20856;-78
2023/07/10 03:08:54;;;;;;;1.50;0.90;;;22.40;98.20;;;;;;5011593;28;20456;-78
2023/07/10 03:11:22;;;;;;;1.50;1.00;;;22.40;98.20;;;;;;4999537;28;20457;-79
2023/07/10 03:13:49;;;;;;;1.47;0.90;;;22.40;98.20;;;;;;5004846;28;20917;-79
2023/07/10 03:16:16;;;;;;;1.50;0.90;;;22.30;98.20;;;;;;5006992;28;21001;-78
2023/07/10 03:18:43;;;;;;;1.47;0.90;;;22.30;98.20;;;;;;5000558;28;20476;-78
2023/07/10 03:21:10;;;;;;;1.47;0.90;;;22.30;98.20;;;;;;4997546;28;20465;-79
2023/07/10 03:23:39;;;;;;;1.50;0.90;;;22.30;98.20;;;;;;4998875;28;21063;-77
2023/07/10 03:26:06;;;;;;;1.47;0.90;;;22.30;98.20;;;;;;4995945;28;20488;-78
2023/07/10 03:28:35;;;;;;;1.50;0.90;;;22.30;98.20;;;;;;4997752;28;20548;-79
2023/07/10 03:31:02;;;;;;;1.70;1.50;;;22.30;98.20;;;;;;4995646;28;20464;-79
2023/07/10 03:33:28;;;;;;;1.50;0.90;;;22.20;98.20;;;;;;5000657;28;20475;-79
2023/07/10 03:35:59;;;;;;;1.50;0.90;;;22.20;98.20;;;;;;5001511;28;20873;-78
2023/07/10 03:38:26;;;;;;;1.50;0.90;;;22.20;98.20;;;;;;5001564;28;20986;-79
2023/07/10 03:40:56;;;;;;;1.50;0.90;;;22.20;98.20;;;;;;4998807;28;21030;-78
2023/07/10 03:43:24;;;;;;;1.47;0.90;;;22.10;98.20;;;;;;4998284;28;20500;-78
2023/07/10 03:45:51;;;;;;;1.50;0.90;;;22.10;98.20;;;;;;5003229;28;20484;-79
2023/07/10 03:48:18;;;;;;;1.50;0.90;;;22.10;98.20;;;;;;5007476;28;20464;-77
2023/07/10 03:50:45;;;;;;;1.50;0.90;;;22.10;98.20;;;;;;4997251;28;20463;-79
2023/07/10 03:53:12;;;;;;;1.47;0.90;;;22.10;98.20;;;;;;5005914;28;20462;-79
2023/07/10 03:55:48;;;;;;;1.50;1.00;;;22.00;98.20;;;;;;5003751;28;20481;-80
2023/07/10 03:58:22;;;;;;;1.50;0.90;;;22.00;98.20;;;;;;4999127;28;20465;-81
2023/07/10 04:00:49;;;;;;;1.47;0.90;;;22.00;98.20;;;;;;5006524;28;20566;-80
2023/07/10 04:03:16;;;;;;;1.50;0.90;;;22.10;98.20;;;;;;5002550;28;20491;-80
2023/07/10 04:05:48;;;;;;;1.50;0.90;;;22.00;98.20;;;;;;4998974;28;21318;-80
2023/07/10 04:08:15;;;;;;;1.50;0.90;;;22.10;98.20;;;;;;5005353;28;20564;-80
2023/07/10 04:10:41;;;;;;;1.50;0.90;;;22.00;98.20;;;;;;4998558;28;20779;-80
2023/07/10 04:13:08;;;;;;;1.50;0.90;;;22.00;98.20;;;;;;5000159;28;21181;-81
2023/07/10 04:15:36;;;;;;;1.60;1.13;;;22.00;98.20;;;;;;5006254;28;20799;-81
2023/07/10 04:18:03;;;;;;;1.50;0.90;;;21.90;98.20;;;;;;5003365;28;20464;-81
2023/07/10 04:20:30;;;;;;;1.50;0.90;;;21.90;98.20;;;;;;5006131;28;20855;-81
2023/07/10 04:23:00;;;;;;;1.50;1.00;;;21.90;98.20;;;;;;5004400;28;20551;-81
2023/07/10 04:25:26;;;;;;;1.50;1.20;;;21.90;98.20;;;;;;5003818;28;20523;-81
2023/07/10 04:27:53;;;;;;;1.47;0.90;;;21.80;98.20;;;;;;5004334;28;20472;-81
2023/07/10 04:30:20;;;;;;;1.50;0.90;;;21.80;98.20;;;;;;4997240;28;20469;-81
2023/07/10 04:32:48;;;;;;;1.50;0.90;;;21.80;98.20;;;;;;5002957;28;20774;-81
2023/07/10 04:35:15;;;;;;;1.50;1.00;;;21.80;98.20;;;;;;5009722;28;21067;-81
2023/07/10 04:37:42;;;;;;;1.50;1.00;;;21.70;98.20;;;;;;5004199;28;20471;-81
2023/07/10 04:40:10;;;;;;;1.50;0.90;;;21.70;98.20;;;;;;5009717;28;20459;-81
2023/07/10 04:42:37;;;;;;;1.50;0.90;;;21.60;98.20;;;;;;4998125;28;20473;-80
2023/07/10 04:45:04;;;;;;;1.50;1.00;;;21.60;98.20;;;;;;5009268;28;20492;-81
2023/07/10 04:47:31;;;;;;;1.50;0.90;;;21.60;98.20;;;;;;5003472;28;20474;-81
2023/07/10 04:49:59;;;;;;;1.47;0.90;;;21.50;98.20;;;;;;4998161;28;20461;-79
2023/07/10 04:52:26;;;;;;;1.50;0.90;;;21.50;98.20;;;;;;5010399;28;20468;-79
2023/07/10 04:54:53;;;;;;;1.50;0.90;;;21.50;98.20;;;;;;5011491;28;20687;-81
2023/07/10 04:57:19;;;;;;;1.50;0.90;;;21.60;98.20;;;;;;5005756;28;20456;-79
2023/07/10 04:59:46;;;;;;;1.50;0.90;;;21.60;98.20;;;;;;5009399;28;20464;-79
2023/07/10 05:02:13;;;;;;;1.50;0.90;;;21.60;98.20;;;;;;5001790;28;20470;-80
2023/07/10 05:04:40;;;;;;;1.70;1.37;;;21.60;98.20;;;;;;5004119;28;20584;-79
2023/07/10 05:07:08;;;;;;;1.47;0.90;;;21.60;98.20;;;;;;5004378;28;20499;-80
2023/07/10 05:09:35;;;;;;;1.50;0.90;;;21.60;98.20;;;;;;5005868;28;20457;-80
2023/07/10 05:12:02;;;;;;;1.50;0.90;;;21.50;98.20;;;;;;4997552;28;20464;-81
2023/07/10 05:14:29;;;;;;;1.50;1.00;;;21.50;98.20;;;;;;5001466;28;20460;-80
2023/07/10 05:16:56;;;;;;;1.50;0.90;;;21.50;98.20;;;;;;5009409;28;20486;-81
2023/07/10 05:19:23;;;;;;;1.50;0.93;;;21.50;98.20;;;;;;5008847;28;20464;-80
2023/07/10 05:21:50;;;;;;;1.50;0.90;;;21.50;98.20;;;;;;4995735;28;20457;-81
2023/07/10 05:24:18;;;;;;;1.47;0.90;;;21.50;98.20;;;;;;4999603;28;20711;-80
2023/07/10 05:26:45;;;;;;;1.50;0.90;;;21.50;98.20;;;;;;5003137;28;20484;-77
2023/07/10 05:29:11;;;;;;;1.50;0.90;;;21.50;98.20;;;;;;5006792;28;20464;-79
2023/07/10 05:31:38;;;;;;;1.50;0.90;;;21.60;98.20;;;;;;5008403;28;20532;-78
2023/07/10 05:34:05;;;;;;;1.50;0.90;;;21.60;98.20;;;;;;4999954;28;20548;-77
2023/07/10 05:36:32;;;;;;;1.50;0.90;;;21.60;98.20;;;;;;5000821;28;20899;-77
2023/07/10 05:38:58;;;;;;;1.47;0.90;;;21.60;98.20;;;;;;4996571;28;20473;-78
2023/07/10 05:41:26;;;;;;;1.50;0.93;;;21.50;98.20;;;;;;4995231;28;20483;-77
2023/07/10 05:43:53;;;;;;;1.50;0.90;;;21.50;98.20;;;;;;5006380;28;20484;-77
2023/07/10 05:46:20;;;;;;;1.47;0.80;;;21.50;98.20;;;;;;5009666;28;20484;-76
2023/07/10 05:48:47;;;;;;;1.47;0.90;;;21.60;98.20;;;;;;5004371;28;20478;-77
2023/07/10 05:51:14;;;;;;;1.40;0.90;;;21.60;98.20;;;;;;5008451;28;20468;-77
2023/07/10 05:53:40;;;;;;;1.47;0.90;;;21.60;98.20;;;;;;5002113;28;20506;-77
2023/07/10 05:56:07;;;;;;;1.47;0.90;;;21.70;98.20;;;;;;5012703;28;20494;-77
2023/07/10 05:58:39;;;;;;;1.43;0.90;;;21.70;98.20;;;;;;5003655;28;20591;-75
2023/07/10 06:01:06;;;;;;;1.50;0.90;;;21.70;98.20;;;;;;5006703;28;20548;-78
2023/07/10 06:03:34;;;;;;;1.50;0.90;;;21.70;98.20;;;;;;5015716;28;20463;-77
2023/07/10 06:06:04;;;;;;;1.50;0.90;;;21.70;98.20;;;;;;5005254;28;20484;-77
2023/07/10 06:08:32;;;;;;;1.50;0.90;;;21.70;98.20;;;;;;5013181;28;21157;-77
2023/07/10 06:10:59;;;;;;;1.50;0.90;;;21.70;98.20;;;;;;5013850;28;20787;-77
2023/07/10 06:13:27;;;;;;;1.47;0.90;;;21.80;98.20;;;;;;5010132;28;20471;-77
2023/07/10 06:15:57;;;;;;;1.60;1.10;;;21.80;98.20;;;;;;5004219;28;20926;-77
2023/07/10 06:18:24;;;;;;;1.47;0.90;;;21.90;98.20;;;;;;5004669;28;20476;-78
2023/07/10 06:20:52;;;;;;;1.43;0.90;;;21.90;98.20;;;;;;5015405;28;20965;-77
2023/07/10 06:23:19;;;;;;;1.50;1.00;;;22.00;98.20;;;;;;5014923;28;20460;-78
2023/07/10 06:25:46;;;;;;;1.50;0.90;;;22.10;98.20;;;;;;5007076;28;20510;-79
2023/07/10 06:28:13;;;;;;;1.50;0.90;;;22.20;98.20;;;;;;5009430;28;20468;-78
2023/07/10 06:30:42;;;;;;;1.50;0.90;;;22.20;98.20;;;;;;5010002;28;20469;-80
2023/07/10 06:33:11;;;;;;;1.47;0.90;;;22.30;98.20;;;;;;5005907;28;20464;-77
2023/07/10 06:35:37;;;;;;;1.47;0.90;;;22.30;98.20;;;;;;4999467;28;20580;-79
2023/07/10 06:38:04;;;;;;;1.50;0.90;;;22.30;98.20;;;;;;5007995;28;20479;-80
2023/07/10 06:40:31;;;;;;;1.50;0.90;;;22.40;98.20;;;;;;5002734;28;20468;-77
2023/07/10 06:42:58;;;;;;;1.50;0.90;;;22.50;98.20;;;;;;5012620;28;20468;-78
2023/07/10 06:45:25;;;;;;;1.50;0.90;;;22.50;98.20;;;;;;5006865;28;20493;-78
2023/07/10 06:47:51;;;;;;;1.50;0.90;;;22.60;98.20;;;;;;5005861;28;20756;-78
2023/07/10 06:50:20;;;;;;;1.50;0.90;;;22.70;98.20;;;;;;5007109;28;20467;-80
2023/07/10 06:52:47;;;;;;;1.50;0.90;;;22.80;98.20;;;;;;5006375;28;20470;-78
2023/07/10 06:55:16;;;;;;;1.50;0.90;;;22.90;98.20;;;;;;5005226;28;20492;-79
2023/07/10 06:57:43;;;;;;;1.50;0.90;;;22.90;98.20;;;;;;5015395;28;20468;-79
2023/07/10 07:00:13;;;;;;;1.50;1.00;;;22.90;98.20;;;;;;5011103;28;20468;-79
2023/07/10 07:02:41;;;;;;;1.50;0.87;;;22.90;98.20;;;;;;5012523;28;20886;-79
2023/07/10 07:05:08;;;;;;;1.50;0.80;;;22.90;98.20;;;;;;5005502;28;20497;-78
2023/07/10 07:07:38;;;;;;;1.50;0.90;;;22.90;98.20;;;;;;5005961;28;20470;-77
2023/07/10 07:10:06;;;;;;;1.50;0.90;;;23.00;98.20;;;;;;5009875;28;20461;-79
2023/07/10 07:12:33;;;;;;;1.50;0.90;;;23.00;98.20;;;;;;5009020;28;20463;-77
2023/07/10 07:14:59;;;;;;;1.50;0.90;;;23.00;98.20;;;;;;5009517;28;20591;-77
2023/07/10 07:17:26;;;;;;;1.50;1.00;;;23.00;98.20;;;;;;5003786;28;20992;-78
2023/07/10 07:19:53;;;;;;;1.50;0.90;;;23.00;98.20;;;;;;5003338;28;20475;-77
2023/07/10 07:22:20;;;;;;;1.50;0.90;;;23.10;98.20;;;;;;5009529;28;20467;-78
2023/07/10 07:24:48;;;;;;;1.50;0.90;;;23.30;98.20;;;;;;4997200;28;20490;-79
2023/07/10 07:27:15;;;;;;;1.50;0.90;;;23.40;98.20;;;;;;5014713;28;20629;-80
2023/07/10 07:29:43;;;;;;;1.50;1.00;;;23.60;98.20;;;;;;5008124;28;20474;-78
2023/07/10 07:32:11;;;;;;;1.50;0.90;;;23.70;98.20;;;;;;5001943;28;20467;-81
2023/07/10 07:34:38;;;;;;;1.50;0.90;;;23.70;98.20;;;;;;4999703;28;20469;-78
2023/07/10 07:37:08;;;;;;;1.50;0.90;;;23.80;98.20;;;;;;5007526;28;20891;-79
2023/07/10 07:39:36;;;;;;;1.50;0.90;;;23.90;98.20;;;;;;5002657;28;20460;-78
2023/07/10 07:42:05;;;;;;;1.50;0.90;;;24.20;98.20;;;;;;4999813;28;20662;-78
2023/07/10 07:44:32;;;;;;;1.50;0.90;;;24.30;98.20;;;;;;5001686;28;20929;-78
2023/07/10 07:46:59;;;;;;;1.60;1.10;;;24.50;98.20;;;;;;5001783;28;20895;-79
2023/07/10 07:49:26;;;;;;;1.50;0.80;;;24.80;97.70;;;;;;4995638;28;20464;-78
2023/07/10 07:51:53;;;;;;;1.50;0.83;;;25.10;97.00;;;;;;5000017;28;20574;-78
2023/07/10 07:54:21;;;;;;;1.50;0.80;;;25.30;96.00;;;;;;5009217;28;20461;-78
2023/07/10 07:56:48;;;;;;;1.50;0.90;;;25.60;94.90;;;;;;5000592;28;20514;-78
2023/07/10 07:59:18;;;;;;;1.50;0.80;;;25.80;93.40;;;;;;4998314;28;20465;-79
2023/07/10 08:01:45;;;;;;;1.50;0.90;;;25.80;93.50;;;;;;4996130;28;20994;-78
2023/07/10 08:04:12;;;;;;;1.50;0.90;;;25.80;93.30;;;;;;5003762;28;20928;-80
2023/07/10 08:06:39;;;;;;;1.50;0.90;;;25.90;92.70;;;;;;5000188;28;20937;-79
2023/07/10 08:09:06;;;;;;;1.50;0.90;;;26.00;93.20;;;;;;5002609;28;20479;-78
2023/07/10 08:11:33;;;;;;;1.50;0.83;;;26.00;93.00;;;;;;5005659;28;20468;-79
2023/07/10 08:14:00;;;;;;;1.50;0.80;;;25.90;93.40;;;;;;4997532;28;20514;-79
2023/07/10 08:33:24;;;;;;;1.50;0.90;;;27.40;89.80;;;;;;5004343;28;20495;-80
2023/07/10 08:35:55;;;;;;;1.50;0.80;;;27.70;89.80;;;;;;5004360;28;20566;-80
2023/07/10 08:38:23;;;;;;;1.50;0.90;;;27.80;88.10;;;;;;5004954;28;20529;-80
2023/07/10 08:40:53;;;;;;;1.50;0.90;;;28.00;87.50;;;;;;4996070;28;20460;-79
2023/07/10 08:43:28;;;;;;;1.50;0.87;;;28.10;86.80;;;;;;4999041;28;20466;-80
2023/07/10 08:46:05;;;;;;;1.50;0.80;;;28.30;86.90;;;;;;4998390;28;20498;-80
2023/07/10 08:48:38;;;;;;;1.50;0.80;;;28.50;85.30;;;;;;5006892;28;20838;-79
2023/07/10 08:51:16;;;;;;;1.50;0.80;;;28.70;84.30;;;;;;5001255;28;20482;-83
2023/07/10 08:53:49;;;;;;;1.50;0.80;;;28.80;83.80;;;;;;5002019;28;20471;-81
2023/07/10 08:56:28;;;;;;;1.50;0.80;;;29.00;83.50;;;;;;5003959;28;20798;-79
2023/07/10 08:59:03;;;;;;;1.50;0.80;;;29.10;82.80;;;;;;5007068;28;20484;-81
2023/07/10 09:07:04;;;;;;;1.47;0.80;;;29.60;82.40;;;;;;5035902;23;20483;-81
2023/07/10 09:09:56;;;;;;;1.50;0.80;;;29.80;80.40;;;;;;5013102;28;20517;-82
2023/07/10 09:12:49;;;;;;;1.43;0.80;;;29.90;79.80;;;;;;5013470;28;20567;-83
2023/07/10 09:15:56;;;;;;;1.50;0.90;;;30.00;79.40;;;;;;5074605;23;20536;-83
2023/07/10 09:18:44;;;;;;;1.50;0.80;;;29.80;79.00;;;;;;5026601;28;20988;-84
2023/07/10 09:21:30;;;;;;;1.50;0.80;;;29.90;80.10;;;;;;5024810;28;20606;-82
2023/07/10 09:27:05;;;;;;;1.47;0.90;;;30.30;78.20;;;;;;5357755;23;20505;-82
2023/07/10 09:29:39;;;;;;;1.50;0.80;;;30.50;78.50;;;;;;5020804;28;20454;-83
2023/07/10 09:32:28;;;;;;;1.47;0.80;;;30.40;77.90;;;;;;5020201;28;20463;-83
2023/07/10 09:35:00;;;;;;;1.50;0.90;;;30.30;77.00;;;;;;5016341;28;20488;-83
2023/07/10 09:37:34;;;;;;;1.47;0.80;;;30.40;79.00;;;;;;4999562;28;20475;-82
2023/07/10 09:40:21;;;;;;;1.50;0.80;;;30.50;78.10;;;;;;5004441;28;20591;-83
2023/07/10 09:42:50;;;;;;;1.50;1.10;;;30.50;76.10;;;;;;5006045;28;20475;-82
2023/07/10 09:45:18;;;;;;;1.50;0.80;;;30.60;75.70;;;;;;5006146;28;20487;-82
2023/07/10 09:47:50;;;;;;;1.50;0.90;;;30.70;75.50;;;;;;5001934;28;20510;-80
2023/07/10 09:53:04;;;;;;;1.50;0.80;;;30.90;72.80;;;;;;5004771;28;20987;-83
2023/07/10 09:55:31;;;;;;;1.60;1.17;;;31.00;74.40;;;;;;5027318;23;20538;-81
2023/07/10 09:58:13;;;;;;;1.50;0.80;;;31.10;71.90;;;;;;5018745;28;20463;-83
2023/07/10 10:00:46;;;;;;;1.47;0.80;;;31.20;72.30;;;;;;5022615;28;20254;-85
2023/07/10 10:03:39;;;;;;;1.50;0.80;;;31.40;71.60;;;;;;5022702;28;20303;-84
2023/07/10 10:06:29;;;;;;;1.43;0.80;;;31.50;70.00;;;;;;4973516;28;20499;-82
2023/07/10 10:09:06;;;;;;;1.50;0.80;;;31.50;71.00;;;;;;5010388;28;20209;-82
2023/07/10 10:15:03;;;;;;;1.47;0.80;;;31.70;71.40;;;;;;4997630;28;20220;-82
2023/07/10 10:17:32;;;;;;;1.50;0.93;;;31.90;69.30;;;;;;5011292;28;20200;-83
2023/07/10 10:20:24;;;;;;;1.47;0.80;;;32.00;69.70;;;;;;5010908;28;20232;-83
2023/07/10 10:23:29;;;;;;;1.47;0.80;;;32.20;68.90;;;;;;5013077;28;20675;-83
2023/07/10 10:26:34;;;;;;;1.40;0.80;;;32.30;68.10;;;;;;5504355;23;21650;-83
2023/07/10 10:33:00;;;;;;;1.43;0.80;;;32.30;66.70;;;;;;4933828;29;20215;-82
2023/07/10 10:35:37;;;;;;;1.47;0.80;;;32.50;69.00;;;;;;5020422;28;20224;-83
2023/07/10 10:38:23;;;;;;;1.47;0.80;;;32.50;67.50;;;;;;5019674;28;20235;-80
2023/07/10 10:40:56;;;;;;;1.43;0.80;;;32.60;67.90;;;;;;5021047;28;20202;-82
2023/07/10 10:43:49;;;;;;;1.43;0.80;;;32.70;68.00;;;;;;5015510;28;20204;-80
2023/07/10 10:46:27;;;;;;;1.43;0.80;;;32.80;67.50;;;;;;5016179;28;20235;-79
2023/07/10 10:49:17;;;;;;;1.40;0.80;;;32.90;68.20;;;;;;5021884;28;20920;-80
2023/07/10 10:51:52;;;;;;;1.40;0.80;;;33.00;66.50;;;;;;5021567;28;20219;-81
2023/07/10 10:54:25;;;;;;;1.42;0.80;;;32.90;65.90;;;;;;5017260;28;20200;-80
2023/07/10 10:57:00;;;;;;;1.40;0.80;;;33.00;65.70;;;;;;5019769;28;20320;-80
2023/07/10 10:59:39;;;;;;;1.43;0.80;;;33.00;66.50;;;;;;5018524;28;20214;-79
2023/07/10 11:02:22;;;;;;;1.43;0.80;;;33.10;66.20;;;;;;5025335;28;20200;-80
2023/07/10 11:04:59;;;;;;;1.45;0.82;;;33.30;66.50;;;;;;5022767;28;20231;-80
2023/07/10 11:07:28;;;;;;;1.40;0.90;;;33.20;65.10;;;;;;5016546;28;20203;-79
2023/07/10 11:10:01;;;;;;;1.47;0.80;;;33.10;66.30;;;;;;5019494;28;20905;-80
2023/07/10 11:12:31;;;;;;;1.40;0.80;;;33.10;67.50;;;;;;5014272;28;20239;-80
2023/07/10 11:15:02;;;;;;;1.43;0.80;;;33.30;66.20;;;;;;5015818;28;20224;-80
2023/07/10 11:17:30;;;;;;;1.42;0.80;;;33.50;66.00;;;;;;5019300;28;20331;-80
2023/07/10 11:20:09;;;;;;;1.45;0.80;;;33.40;65.80;;;;;;5018190;28;20742;-79
2023/07/10 11:22:36;;;;;;;1.42;0.80;;;33.40;65.90;;;;;;5021982;28;20200;-80
2023/07/10 11:25:03;;;;;;;1.45;0.80;;;33.50;65.20;;;;;;5022529;28;20221;-80
2023/07/10 11:27:49;;;;;;;1.42;0.80;;;33.40;65.80;;;;;;5019856;28;20224;-80
2023/07/10 11:30:17;;;;;;;1.45;0.80;;;33.40;65.60;;;;;;5021115;28;20446;-79
2023/07/10 11:32:59;;;;;;;1.42;0.80;;;33.50;65.50;;;;;;5018098;28;20247;-80
2023/07/10 11:35:29;;;;;;;1.42;0.80;;;33.40;65.50;;;;;;5015620;28;20216;-81
2023/07/10 11:38:15;;;;;;;1.40;0.80;;;33.20;66.00;;;;;;5018729;28;20219;-79
2023/07/10 11:40:46;;;;;;;1.40;0.80;;;33.30;66.10;;;;;;5019017;28;20209;-79
2023/07/10 11:43:58;;;;;;;1.42;0.80;;;33.50;65.40;;;;;;5017453;28;20219;-80
2023/07/10 11:46:34;;;;;;;1.42;0.80;;;33.60;65.70;;;;;;5019369;28;20254;-80
2023/07/10 11:49:15;;;;;;;1.45;0.80;;;33.60;63.50;;;;;;5018992;28;20215;-79
2023/07/10 11:51:44;;;;;;;1.45;0.80;;;33.30;64.60;;;;;;5016326;28;20208;-81
2023/07/10 11:54:39;;;;;;;1.47;0.80;;;33.10;63.30;;;;;;5021088;28;20204;-79
2023/07/10 11:57:14;;;;;;;1.40;0.80;;;33.10;64.20;;;;;;5012807;28;20594;-77
2023/07/10 11:59:48;;;;;;;1.40;0.80;;;33.40;63.00;;;;;;5018081;28;20214;-79
2023/07/10 12:02:29;;;;;;;1.42;0.80;;;33.50;63.10;;;;;;5014564;28;20208;-80
2023/07/10 12:05:02;;;;;;;1.45;0.80;;;33.70;63.70;;;;;;5016688;28;20712;-79
2023/07/10 12:07:31;;;;;;;1.40;0.80;;;33.80;62.50;;;;;;5017487;28;20505;-80
2023/07/10 12:10:00;;;;;;;1.50;1.00;;;33.50;62.80;;;;;;5016110;28;20250;-79
2023/07/10 12:12:32;;;;;;;1.40;0.80;;;33.60;62.50;;;;;;5016246;28;20208;-79
2023/07/10 12:15:04;;;;;;;1.40;0.80;;;33.80;63.20;;;;;;5017729;28;20443;-80
2023/07/10 12:21:58;;;;;;;1.40;0.80;;;34.10;62.10;;;;;;5020167;28;20348;-84
2023/07/10 12:24:27;;;;;;;1.45;0.80;;;34.40;62.20;;;;;;4981039;28;20228;-82
2023/07/10 12:26:58;;;;;;;1.50;0.90;;;34.50;62.10;;;;;;5015975;28;20228;-83
2023/07/10 12:29:27;;;;;;;1.42;0.80;;;34.50;61.90;;;;;;5017370;28;20276;-81
2023/07/10 12:31:55;;;;;;;1.40;0.80;;;34.50;60.90;;;;;;5017416;28;20212;-84
2023/07/10 12:34:28;;;;;;;1.50;1.13;;;34.60;61.00;;;;;;5017780;28;20210;-82
2023/07/10 12:37:13;;;;;;;1.40;0.80;;;34.70;61.60;;;;;;5026039;28;20218;-83
2023/07/10 12:40:01;;;;;;;1.40;0.80;;;34.60;60.80;;;;;;5021741;28;20260;-84
2023/07/10 12:42:38;;;;;;;1.42;0.80;;;34.40;62.10;;;;;;5022193;28;20211;-83
2023/07/10 12:51:38;;;;;;;1.40;0.80;;;34.40;61.30;;;;;;5016397;28;20215;-83
2023/07/10 12:57:48;;;;;;;1.42;0.80;;;34.10;61.30;;;;;;4982598;28;20638;-83
2023/07/10 13:04:10;;;;;;;1.40;0.80;;;34.70;61.30;;;;;;5024040;28;20757;-83
2023/07/10 13:06:47;;;;;;;1.40;0.80;;;34.40;61.10;;;;;;5018809;28;20228;-84
2023/07/10 13:12:23;;;;;;;1.40;0.80;;;34.10;61.50;;;;;;5018542;28;20212;-85
2023/07/10 13:15:09;;;;;;;1.40;0.80;;;34.30;60.20;;;;;;5024952;28;20235;-83
2023/07/10 13:18:06;;;;;;;1.40;0.80;;;34.40;62.40;;;;;;5020167;28;20215;-82
2023/07/10 13:20:39;;;;;;;1.40;0.80;;;34.50;61.00;;;;;;5020311;28;20232;-83
2023/07/10 13:23:37;;;;;;;1.40;0.80;;;34.70;59.90;;;;;;5024722;28;20212;-82
2023/07/10 13:26:18;;;;;;;1.40;0.80;;;34.90;60.00;;;;;;5020064;28;20278;-86
2023/07/10 13:28:46;;;;;;;1.40;0.80;;;35.00;60.20;;;;;;5021533;28;20216;-83
2023/07/10 13:31:29;;;;;;;1.38;0.80;;;34.90;59.80;;;;;;5026312;28;20247;-83
2023/07/10 13:33:56;;;;;;;1.40;0.80;;;34.40;59.80;;;;;;5020048;28;20786;-85
2023/07/10 13:36:32;;;;;;;1.40;0.80;;;34.20;61.20;;;;;;5022724;28;20430;-82
2023/07/10 13:39:02;;;;;;;1.40;0.80;;;34.00;61.30;;;;;;5023265;28;20644;-84
2023/07/10 13:41:32;;;;;;;1.42;0.80;;;33.80;60.70;;;;;;5025491;28;20211;-84
2023/07/10 13:44:04;;;;;;;1.42;0.80;;;33.60;61.90;;;;;;5022117;28;20205;-86
2023/07/10 13:50:11;;;;;;;1.40;0.80;;;33.10;62.40;;;;;;5018532;28;20728;-83
2023/07/10 13:53:06;;;;;;;1.50;1.00;;;33.10;61.50;;;;;;5021673;28;20211;-82
2023/07/10 13:55:35;;;;;;;1.40;0.80;;;33.40;63.30;;;;;;5015996;28;20738;-82
2023/07/10 14:01:14;;;;;;;;;;;;;;;;;;;;;
2023/07/10 14:06:53;;;;;;;1.42;0.80;;;34.20;61.80;;;;;;5014515;28;20236;-84
2023/07/10 14:09:30;;;;;;;1.48;0.98;;;34.50;60.20;;;;;;5020409;28;20318;-83
2023/07/10 14:12:35;;;;;;;1.50;1.02;;;34.50;59.70;;;;;;5018550;28;20220;-83
2023/07/10 14:15:25;;;;;;;1.40;0.80;;;34.50;60.90;;;;;;5020727;28;20216;-83